Time;durP1;ratioP1;P1;durP2;ratioP2;P2;SDS_P1;SDS_P2;PMS_P1;PMS_P2;Temp;Humidity;BMP_temperature;BMP_pressure;BME280_temperature;BME280_humidity;BME280_pressure;Samples;Min_cycle;Max_cycle;Signal;HPM_P1;HPM_P2
2022/07/04 00:00:55;;;;;;;7.05;3.58;;;;;;;19.33;72.33;100522.97;3677026;78;98794;-83
2022/07/04 00:05:56;;;;;;;7.10;3.80;;;;;;;19.29;72.40;100523.05;3693193;79;98136;-83
2022/07/04 00:10:57;;;;;;;5.33;3.43;;;;;;;19.27;72.90;100522.71;3691241;78;98361;-83
2022/07/04 00:15:58;;;;;;;5.90;3.20;;;;;;;19.25;72.83;100522.97;3688319;79;98579;-83
2022/07/04 00:20:59;;;;;;;7.27;3.60;;;;;;;19.20;73.10;100524.84;3685123;79;98781;-82
2022/07/04 00:26:00;;;;;;;6.77;3.63;;;;;;;19.20;73.42;100515.08;3697459;80;99346;-84
2022/07/04 00:31:01;;;;;;;6.03;3.30;;;;;;;19.14;73.54;100516.19;3700822;80;98587;-83
2022/07/04 00:36:02;;;;;;;6.30;3.30;;;;;;;19.12;73.75;100519.25;3626018;79;99200;-83
2022/07/04 00:41:03;;;;;;;9.33;3.90;;;;;;;19.13;73.73;100522.22;3599402;81;98691;-83
2022/07/04 00:46:05;;;;;;;8.55;3.45;;;;;;;19.09;73.76;100522.30;3610586;80;98613;-83
2022/07/04 00:51:07;;;;;;;7.27;3.67;;;;;;;19.02;73.40;100506.33;3598510;80;98720;-82
2022/07/04 00:56:08;;;;;;;8.80;3.60;;;;;;;18.95;73.71;100500.28;3602242;80;98030;-82
2022/07/04 01:01:09;;;;;;;7.92;3.67;;;;;;;18.92;73.41;100501.13;3583892;81;98508;-82
2022/07/04 01:06:10;;;;;;;7.30;3.77;;;;;;;18.82;72.97;100491.61;3603520;81;99114;-83
2022/07/04 01:11:11;;;;;;;8.67;3.37;;;;;;;18.77;73.38;100483.75;3607184;80;98447;-83
2022/07/04 01:16:13;;;;;;;11.10;3.50;;;;;;;18.72;73.31;100476.69;3604382;81;99068;-83
2022/07/04 01:21:15;;;;;;;8.47;3.73;;;;;;;18.69;73.08;100473.98;3606549;80;99264;-83
2022/07/04 01:26:16;;;;;;;12.70;5.30;;;;;;;18.68;73.20;100473.78;3602340;80;98940;-84
2022/07/04 01:31:17;;;;;;;7.10;3.30;;;;;;;18.66;72.98;100473.43;3605023;80;99069;-83
2022/07/04 01:36:18;;;;;;;10.00;4.43;;;;;;;18.65;73.49;100471.23;3611632;80;98877;-83
2022/07/04 01:41:19;;;;;;;7.30;4.00;;;;;;;18.66;73.48;100467.26;3601675;81;98589;-83
2022/07/04 01:46:20;;;;;;;8.07;3.53;;;;;;;18.67;74.18;100466.63;3600085;80;99095;-83
2022/07/04 01:51:21;;;;;;;7.20;3.53;;;;;;;18.68;74.48;100467.61;3600961;80;98271;-83
2022/07/04 01:56:22;;;;;;;7.20;3.77;;;;;;;18.69;74.74;100460.04;3603961;80;98855;-83
2022/07/04 02:01:32;;;;;;;6.70;3.77;;;;;;;18.70;75.01;100467.18;3609865;80;98724;-83
2022/07/04 02:06:33;;;;;;;7.35;3.77;;;;;;;18.68;75.11;100462.03;3618820;80;98127;-83
2022/07/04 02:16:54;;;;;;;9.28;5.55;;;;;;;18.63;75.50;100457.58;3522929;83;99123;-83
2022/07/04 02:21:55;;;;;;;9.68;5.15;;;;;;;18.60;75.77;100455.64;3564165;82;98635;-83
2022/07/04 02:26:56;;;;;;;9.33;4.90;;;;;;;18.59;75.89;100452.68;3597376;80;98927;-84
2022/07/04 02:31:57;;;;;;;8.18;4.12;;;;;;;18.55;75.86;100447.19;3608662;80;98522;-83
2022/07/04 02:36:58;;;;;;;7.95;4.05;;;;;;;18.53;76.07;100440.47;3685570;79;99171;-84
2022/07/04 02:41:59;;;;;;;7.45;4.08;;;;;;;18.46;75.80;100453.94;3701571;77;98024;-83
2022/07/04 02:47:00;;;;;;;10.83;4.80;;;;;;;18.41;76.09;100443.28;3685269;78;98648;-83
2022/07/04 02:52:01;;;;;;;8.28;4.05;;;;;;;18.40;76.51;100451.47;3659266;78;98903;-83
2022/07/04 02:57:03;;;;;;;7.67;4.63;;;;;;;18.37;76.70;100449.53;3675572;78;98921;-84
2022/07/04 03:02:04;;;;;;;7.67;4.05;;;;;;;18.33;76.67;100455.01;3682598;78;97938;-84
2022/07/04 03:07:07;;;;;;;8.80;4.62;;;;;;;18.26;76.80;100454.50;3693850;79;99149;-84
2022/07/04 03:12:09;;;;;;;8.25;4.22;;;;;;;18.24;76.83;100462.51;3688909;78;99091;-84
2022/07/04 03:17:10;;;;;;;7.92;4.28;;;;;;;18.16;76.94;100451.31;3686923;79;98519;-83
2022/07/04 03:22:11;;;;;;;7.45;4.20;;;;;;;18.16;77.28;100460.29;3690947;79;98602;-83
2022/07/04 03:27:12;;;;;;;9.03;4.58;;;;;;;18.11;76.95;100464.96;3689232;78;98641;-84
2022/07/04 03:32:13;;;;;;;11.37;4.90;;;;;;;18.05;76.91;100458.31;3703069;79;99128;-83
2022/07/04 03:37:14;;;;;;;9.13;4.73;;;;;;;18.02;77.39;100452.98;3614678;80;99394;-83
2022/07/04 03:42:15;;;;;;;7.78;4.37;;;;;;;18.05;77.68;100449.33;3609203;81;98054;-84
2022/07/04 03:47:16;;;;;;;10.35;5.60;;;;;;;18.04;77.48;100454.73;3605785;80;98538;-83
2022/07/04 03:52:17;;;;;;;7.70;5.22;;;;;;;18.03;77.63;100459.36;3616139;81;98883;-83
2022/07/04 03:57:19;;;;;;;9.98;4.60;;;;;;;18.00;77.71;100454.03;3595629;81;98665;-83
2022/07/04 04:02:20;;;;;;;9.43;5.12;;;;;;;18.03;78.01;100462.91;3618372;80;99133;-83
2022/07/04 04:07:21;;;;;;;8.70;3.95;;;;;;;18.09;77.93;100454.86;3615370;81;98429;-83
2022/07/04 04:12:22;;;;;;;8.28;4.10;;;;;;;18.20;78.13;100447.86;3607163;80;98917;-83
2022/07/04 04:17:23;;;;;;;8.98;4.70;;;;;;;18.32;78.12;100444.45;3603701;81;98729;-84
2022/07/04 04:22:24;;;;;;;7.45;4.15;;;;;;;18.45;78.04;100442.61;3607626;81;98719;-83
2022/07/04 04:27:25;;;;;;;7.85;4.30;;;;;;;18.59;77.86;100454.08;3587398;80;98696;-85
2022/07/04 04:32:26;;;;;;;9.53;4.30;;;;;;;18.73;77.84;100452.36;3600454;81;98951;-84
2022/07/04 04:37:27;;;;;;;7.20;4.40;;;;;;;18.87;77.54;100450.07;3675570;79;99348;-85
2022/07/04 04:42:28;;;;;;;9.35;4.67;;;;;;;19.02;77.33;100436.59;3699317;78;99073;-85
2022/07/04 04:47:30;;;;;;;9.50;5.12;;;;;;;19.14;77.13;100436.67;3688721;78;98949;-82
2022/07/04 04:52:31;;;;;;;22.17;6.15;;;;;;;19.24;76.97;100432.11;3687135;78;97840;-83
2022/07/04 04:57:32;;;;;;;8.98;4.72;;;;;;;19.39;76.69;100433.31;3678978;78;99215;-83
2022/07/04 05:02:33;;;;;;;11.60;5.05;;;;;;;19.58;76.31;100432.44;3711814;78;98944;-85
2022/07/04 05:07:34;;;;;;;10.35;4.85;;;;;;;19.82;75.87;100433.20;3707177;78;99379;-85
2022/07/04 05:12:35;;;;;;;15.88;5.78;;;;;;;20.09;75.41;100441.27;3711501;78;99292;-85
2022/07/04 05:17:36;;;;;;;17.20;5.30;;;;;;;20.41;74.79;100435.58;3715693;78;98938;-82
2022/07/04 05:22:37;;;;;;;14.15;5.08;;;;;;;20.79;74.32;100438.63;3694768;78;97998;-82
2022/07/04 05:27:39;;;;;;;16.80;4.65;;;;;;;21.27;73.79;100436.95;3707426;78;99252;-83
2022/07/04 05:32:41;;;;;;;12.50;4.70;;;;;;;21.74;72.21;100439.81;3717477;78;99214;-83
2022/07/04 05:37:43;;;;;;;9.98;5.20;;;;;;;22.18;72.07;100435.84;3672460;78;99027;-84
2022/07/04 05:42:44;;;;;;;9.80;5.05;;;;;;;22.67;70.37;100462.09;3680681;78;98806;-83
2022/07/04 05:47:46;;;;;;;9.68;4.33;;;;;;;23.18;68.84;100497.81;3659262;79;99001;-82
2022/07/04 05:52:47;;;;;;;8.58;4.30;;;;;;;23.80;67.96;100478.80;3680900;79;97747;-84
2022/07/04 05:57:48;;;;;;;7.53;4.03;;;;;;;24.25;66.07;100498.59;3666079;80;99051;-82
2022/07/04 06:02:49;;;;;;;9.13;4.00;;;;;;;24.42;64.06;100514.67;3681709;79;98058;-82
2022/07/04 06:07:50;;;;;;;8.90;4.12;;;;;;;24.62;64.01;100507.98;3668746;80;98883;-82
2022/07/04 06:12:52;;;;;;;9.43;4.40;;;;;;;24.83;63.01;100521.70;3682938;79;99115;-82
2022/07/04 06:17:53;;;;;;;7.50;3.75;;;;;;;24.83;62.32;100516.07;3655981;79;98878;-82
2022/07/04 06:22:54;;;;;;;13.98;4.75;;;;;;;24.78;62.58;100538.61;3661896;79;34887;-83
2022/07/04 06:27:55;;;;;;;7.37;4.90;;;;;;;24.81;62.43;100537.69;3666918;80;98637;-82
2022/07/04 06:33:01;;;;;;;6.62;4.20;;;;;;;24.89;62.19;100534.69;3677006;79;98826;-83
2022/07/04 06:38:02;;;;;;;9.68;4.37;;;;;;;25.00;62.99;100534.18;3685813;78;99114;-82
2022/07/04 06:43:04;;;;;;;8.20;4.15;;;;;;;25.47;62.81;100523.12;3706332;78;99303;-82
2022/07/04 06:48:06;;;;;;;6.30;4.33;;;;;;;25.99;62.37;100528.22;3678954;80;98808;-83
2022/07/04 06:53:10;;;;;;;6.50;4.15;;;;;;;26.56;61.84;100519.18;3702029;78;25900;-82
2022/07/04 06:58:12;;;;;;;9.78;4.25;;;;;;;27.00;60.14;100516.39;3678019;80;98962;-82
2022/07/04 07:03:13;;;;;;;7.95;3.80;;;;;;;27.18;59.43;100526.13;3694922;78;98697;-82
2022/07/04 07:08:14;;;;;;;6.58;4.08;;;;;;;27.36;58.55;100525.25;3700847;78;98812;-81
2022/07/04 07:13:16;;;;;;;9.93;4.00;;;;;;;27.40;57.75;100507.47;3690590;78;99261;-82
2022/07/04 07:18:17;;;;;;;6.53;3.30;;;;;;;27.13;57.17;100520.48;3696091;78;98826;-82
2022/07/04 07:23:18;;;;;;;6.30;3.95;;;;;;;27.03;56.64;100501.30;3698379;79;34928;-82
2022/07/04 07:28:19;;;;;;;8.08;3.80;;;;;;;26.46;56.36;100499.94;3669075;78;99177;-82
2022/07/04 07:33:22;;;;;;;11.08;3.60;;;;;;;26.40;57.40;100505.48;3683356;78;98561;-84
2022/07/04 07:38:24;;;;;;;7.58;3.90;;;;;;;26.37;57.69;100507.09;3683856;80;99029;-83
2022/07/04 07:43:25;;;;;;;6.72;3.80;;;;;;;26.46;57.11;100512.02;3687714;78;98926;-82
2022/07/04 07:48:27;;;;;;;7.15;3.67;;;;;;;26.45;56.48;100510.46;3682957;79;98601;-82
2022/07/04 07:53:28;;;;;;;7.10;3.70;;;;;;;26.39;56.27;100512.40;3705879;78;25873;-81
2022/07/04 07:58:29;;;;;;;9.20;3.62;;;;;;;26.49;55.22;100518.74;3688561;79;99242;-83
2022/07/04 08:08:50;;;;;;;10.00;3.10;;;;;;;26.02;56.13;100521.59;3698107;78;99202;-81
2022/07/04 08:13:52;;;;;;;6.10;3.62;;;;;;;25.92;56.49;100532.16;3688647;78;98966;-81
2022/07/04 08:18:53;;;;;;;8.55;3.12;;;;;;;25.88;58.24;100537.16;3699922;78;98573;-81
2022/07/04 08:23:54;;;;;;;7.47;3.10;;;;;;;25.77;58.29;100536.91;3698810;78;98767;-81
2022/07/04 08:28:57;;;;;;;5.00;3.37;;;;;;;25.61;58.39;100542.17;3699535;79;98811;-81
2022/07/04 08:33:58;;;;;;;9.35;3.98;;;;;;;25.56;59.87;100544.99;3703242;80;98716;-81
2022/07/04 08:38:59;;;;;;;12.37;3.80;;;;;;;25.55;60.56;100536.39;3667777;78;99154;-81
2022/07/04 08:44:00;;;;;;;7.78;3.40;;;;;;;25.75;60.23;100534.41;3699073;78;99304;-81
2022/07/04 08:49:06;;;;;;;4.75;2.80;;;;;;;26.04;61.42;100536.02;3684576;79;98986;-81
2022/07/04 08:59:29;;;;;;;5.60;2.50;;;;;;;27.23;59.69;100544.58;3677558;78;98766;-81
2022/07/04 09:04:31;;;;;;;4.75;2.77;;;;;;;27.88;57.93;100557.45;3689473;79;98802;-82
2022/07/04 09:09:33;;;;;;;6.15;2.90;;;;;;;28.85;57.79;100566.34;3682106;78;98630;-82
2022/07/04 09:14:34;;;;;;;6.25;2.70;;;;;;;29.57;54.86;100572.73;3693574;80;98782;-82
2022/07/04 09:19:36;;;;;;;5.05;2.90;;;;;;;30.45;54.76;100574.09;3697164;78;98797;-81
2022/07/04 09:24:50;;;;;;;5.17;2.62;;;;;;;31.41;53.04;100579.69;3689334;78;99277;-82
2022/07/04 09:29:54;;;;;;;6.37;2.43;;;;;;;32.03;51.49;100587.67;3690460;78;98605;-82
2022/07/04 09:34:55;;;;;;;7.37;3.30;;;;;;;32.74;49.84;100602.36;3696803;78;26016;-81
2022/07/04 09:39:57;;;;;;;4.22;2.30;;;;;;;32.94;47.04;100594.11;3661288;80;98713;-81
2022/07/04 09:45:05;;;;;;;4.25;2.45;;;;;;;33.24;46.37;100581.47;3663981;80;97959;-82
2022/07/04 09:50:18;;;;;;;3.65;2.25;;;;;;;33.92;46.42;100589.77;3695222;79;98781;-82
2022/07/04 09:55:39;;;;;;;4.85;2.75;;;;;;;34.41;44.18;100599.92;3678720;78;98042;-81
2022/07/04 10:00:45;;;;;;;6.35;2.60;;;;;;;34.90;44.73;100592.02;3696807;78;98768;-81
2022/07/04 10:06:09;;;;;;;5.33;3.08;;;;;;;35.31;42.22;100581.80;3711199;78;26281;-81
2022/07/04 10:11:11;;;;;;;7.42;3.30;;;;;;;35.81;40.49;100593.23;3692360;78;98312;-80
2022/07/04 10:16:16;;;;;;;5.17;2.87;;;;;;;35.77;41.13;100595.65;3689904;78;99110;-82
2022/07/04 10:21:18;;;;;;;4.35;2.75;;;;;;;36.40;39.42;100592.63;3679936;80;98603;-82
2022/07/04 10:26:21;;;;;;;5.75;2.15;;;;;;;36.90;39.39;100585.87;3680093;78;98808;-81
2022/07/04 10:31:26;;;;;;;4.25;2.42;;;;;;;37.38;38.43;100591.03;3701420;78;98862;-80
2022/07/04 10:36:29;;;;;;;4.80;2.30;;;;;;;37.62;36.59;100586.39;3688146;78;98041;-80
2022/07/04 10:41:32;;;;;;;5.90;2.77;;;;;;;37.81;37.35;100583.39;3658653;80;98248;-81
2022/07/04 10:46:36;;;;;;;4.28;2.87;;;;;;;38.17;37.49;100571.34;3671050;80;99215;-82
2022/07/04 10:51:48;;;;;;;5.03;2.58;;;;;;;38.37;36.73;100576.92;3673863;79;98631;-81
2022/07/04 10:56:56;;;;;;;4.10;2.70;;;;;;;38.71;36.88;100581.81;3650820;80;99070;-82
2022/07/04 11:02:16;;;;;;;3.67;2.37;;;;;;;38.86;36.35;100579.81;3669418;79;98361;-81
2022/07/04 11:07:41;;;;;;;6.12;2.95;;;;;;;39.44;36.49;100571.82;3649728;80;99016;-81
2022/07/04 11:13:00;;;;;;;4.65;2.67;;;;;;;39.77;34.27;100572.90;3669713;80;98960;-80
2022/07/04 11:18:15;;;;;;;4.65;2.72;;;;;;;39.76;33.33;100569.14;3652581;80;98760;-82
2022/07/04 11:23:19;;;;;;;4.62;2.92;;;;;;;39.70;33.74;100568.55;3667614;80;25981;-82
2022/07/04 11:28:32;;;;;;;5.28;3.02;;;;;;;39.58;32.49;100558.75;3664817;80;99010;-82
2022/07/04 11:33:36;;;;;;;6.03;3.27;;;;;;;39.38;33.08;100556.15;3670434;78;98338;-82
2022/07/04 11:38:49;;;;;;;5.20;2.58;;;;;;;39.09;32.20;100559.71;3625667;80;99243;-83
2022/07/04 11:49:11;;;;;;;4.55;2.80;;;;;;;39.02;31.99;100564.79;3596664;80;98893;-81
2022/07/04 11:54:12;;;;;;;3.53;2.70;;;;;;;39.04;32.78;100563.53;3609210;80;99181;-81
2022/07/04 11:59:17;;;;;;;7.97;3.22;;;;;;;38.87;32.89;100544.59;3604375;81;98664;-81
2022/07/04 12:04:20;;;;;;;5.03;3.30;;;;;;;38.96;32.13;100549.12;3606552;80;99001;-81
2022/07/04 12:09:21;;;;;;;4.33;3.10;;;;;;;39.01;31.88;100544.55;3597009;80;99189;-81
2022/07/04 12:14:24;;;;;;;8.03;3.72;;;;;;;38.55;32.94;100547.12;3597813;80;99356;-81
2022/07/04 12:19:25;;;;;;;8.33;4.20;;;;;;;38.72;33.19;100540.97;3599160;80;98762;-82
2022/07/04 12:24:43;;;;;;;5.60;4.00;;;;;;;38.48;31.57;100539.23;3600845;81;98895;-81
2022/07/04 12:29:49;;;;;;;6.08;3.65;;;;;;;37.75;31.21;100534.61;3596191;80;98416;-81
2022/07/04 12:34:50;;;;;;;7.47;4.60;;;;;;;37.49;33.19;100524.02;3605943;81;99006;-81
2022/07/04 12:39:51;;;;;;;5.03;4.00;;;;;;;37.76;31.84;100525.41;3658056;78;98677;-83
2022/07/04 12:44:52;;;;;;;5.65;4.28;;;;;;;37.54;32.68;100531.75;3707343;79;99134;-80
2022/07/04 12:49:53;;;;;;;7.85;4.20;;;;;;;37.75;33.32;100532.50;3682841;78;98970;-81
2022/07/04 12:55:09;;;;;;;4.53;3.35;;;;;;;37.86;33.25;100527.88;3696083;78;98381;-81
2022/07/04 13:00:12;;;;;;;4.40;3.67;;;;;;;37.57;33.39;100524.89;3692170;78;98517;-81
2022/07/04 13:05:13;;;;;;;5.30;3.10;;;;;;;37.48;33.39;100530.34;3678367;78;25881;-81
2022/07/04 13:10:14;;;;;;;4.70;3.27;;;;;;;37.49;34.00;100526.88;3690609;78;98837;-81
2022/07/04 13:15:16;;;;;;;4.28;3.15;;;;;;;37.41;33.85;100526.06;3701982;80;98679;-81
2022/07/04 13:20:17;;;;;;;6.37;3.17;;;;;;;37.09;32.77;100519.00;3692206;79;99082;-81
2022/07/04 13:25:19;;;;;;;4.72;3.12;;;;;;;36.54;33.37;100528.22;3696396;78;99140;-80
2022/07/04 13:30:20;;;;;;;5.72;3.62;;;;;;;36.17;34.52;100524.15;3690810;78;99196;-80
2022/07/04 13:35:21;;;;;;;4.22;2.77;;;;;;;35.89;33.94;100515.98;3702588;78;25917;-81
2022/07/04 13:40:22;;;;;;;5.22;3.30;;;;;;;35.60;34.94;100525.63;3614111;79;98707;-81
2022/07/04 13:45:24;;;;;;;7.72;3.33;;;;;;;35.37;35.43;100525.91;3603097;81;99034;-80
2022/07/04 13:50:25;;;;;;;3.92;2.90;;;;;;;35.03;36.10;100539.94;3619769;80;99230;-80
2022/07/04 13:55:26;;;;;;;5.72;3.02;;;;;;;35.05;35.75;100529.39;3625631;81;98796;-81
2022/07/04 14:00:28;;;;;;;4.60;3.12;;;;;;;34.83;35.69;100535.45;3611851;78;98811;-81
2022/07/04 14:05:29;;;;;;;4.53;3.15;;;;;;;34.69;36.00;100536.00;3609074;80;25907;-81
2022/07/04 14:10:30;;;;;;;6.87;3.00;;;;;;;34.54;35.90;100539.97;3606675;80;99413;-81
2022/07/04 14:15:32;;;;;;;4.37;2.87;;;;;;;34.52;36.59;100538.97;3619383;80;98760;-81
2022/07/04 14:20:33;;;;;;;7.60;3.10;;;;;;;34.58;36.91;100536.80;3627678;80;99183;-81
2022/07/04 14:25:34;;;;;;;4.40;2.90;;;;;;;34.44;36.57;100523.75;3618714;80;98439;-81
2022/07/04 14:30:35;;;;;;;8.10;3.20;;;;;;;34.37;37.03;100519.41;3607435;80;98478;-83
2022/07/04 14:35:36;;;;;;;6.43;2.53;;;;;;;34.30;36.89;100536.39;3623626;80;25949;-82
2022/07/04 14:40:38;;;;;;;4.97;2.52;;;;;;;34.13;36.73;100536.58;3663153;80;98718;-83
2022/07/04 14:45:40;;;;;;;4.53;2.67;;;;;;;33.81;36.04;100529.13;3680379;80;99085;-82
2022/07/04 14:50:41;;;;;;;6.10;2.52;;;;;;;33.64;37.36;100519.94;3678392;78;99123;-82
2022/07/04 14:55:42;;;;;;;4.40;2.45;;;;;;;33.13;36.37;100520.88;3693182;78;99220;-84
2022/07/04 15:00:43;;;;;;;3.17;2.35;;;;;;;32.85;37.39;100519.64;3693600;78;99430;-84
2022/07/04 15:05:44;;;;;;;2.87;2.00;;;;;;;32.80;38.02;100513.98;3704757;78;30486;-83
2022/07/04 15:10:45;;;;;;;2.52;1.90;;;;;;;32.74;37.85;100516.08;3704370;78;99235;-83
2022/07/04 15:15:46;;;;;;;4.00;2.15;;;;;;;32.71;38.04;100511.41;3711379;78;99285;-84
2022/07/04 15:26:07;;;;;;;3.55;2.27;;;;;;;32.66;38.14;100509.38;3681857;78;98548;-83
2022/07/04 15:31:08;;;;;;;5.58;2.27;;;;;;;32.55;38.35;100508.01;3681521;80;98819;-82
2022/07/04 15:36:09;;;;;;;4.75;2.55;;;;;;;32.38;38.40;100501.63;3701258;78;99277;-82
2022/07/04 15:41:15;;;;;;;7.37;2.92;;;;;;;32.26;39.08;100495.86;3706122;78;98560;-82
2022/07/04 15:46:13;;;;;;;5.92;2.02;;;;;;;32.11;38.94;100503.91;3685158;78;98204;-82
2022/07/04 15:51:14;;;;;;;4.20;2.20;;;;;;;31.91;39.53;100497.89;3687749;78;98874;-83
2022/07/04 15:56:15;;;;;;;2.45;1.90;;;;;;;31.80;39.20;100492.87;3707562;78;99142;-81
2022/07/04 16:01:16;;;;;;;3.08;2.00;;;;;;;31.50;39.04;100498.98;3694159;78;98358;-83
2022/07/04 16:06:17;;;;;;;3.87;2.10;;;;;;;31.26;39.27;100496.67;3711936;78;98455;-83
2022/07/04 16:11:18;;;;;;;3.60;2.00;;;;;;;31.05;39.94;100486.05;3691091;78;98300;-84
2022/07/04 16:16:22;;;;;;;6.92;2.33;;;;;;;30.70;39.41;100491.42;3705541;78;98707;-82
2022/07/04 16:21:22;;;;;;;6.53;2.00;;;;;;;30.41;39.13;100494.69;3684791;79;98699;-83
2022/07/04 16:26:23;;;;;;;2.90;2.17;;;;;;;30.06;38.85;100499.28;3706188;78;99278;-84
2022/07/04 16:31:24;;;;;;;5.80;2.20;;;;;;;29.63;38.50;100502.63;3699254;78;99102;-82
2022/07/04 16:36:25;;;;;;;6.85;2.92;;;;;;;29.22;39.63;100502.70;3686618;78;99166;-83
2022/07/04 16:41:26;;;;;;;5.85;1.85;;;;;;;29.03;40.50;100503.69;3698260;78;98100;-83
2022/07/04 16:46:28;;;;;;;3.05;2.22;;;;;;;28.78;40.84;100495.18;3704448;78;97824;-83
2022/07/04 16:51:29;;;;;;;9.60;2.75;;;;;;;28.56;41.44;100485.03;3702830;78;99025;-84
2022/07/04 16:56:30;;;;;;;7.62;2.52;;;;;;;28.39;41.88;100498.99;3700212;78;97985;-83
2022/07/04 17:01:32;;;;;;;3.75;2.12;;;;;;;28.21;42.47;100498.48;3695282;78;99187;-84
2022/07/04 17:06:33;;;;;;;3.08;2.00;;;;;;;28.06;42.50;100499.21;3690947;79;99108;-84
2022/07/04 17:11:34;;;;;;;4.33;2.20;;;;;;;27.86;42.88;100495.73;3690425;79;98240;-84
2022/07/04 17:16:35;;;;;;;4.12;2.08;;;;;;;27.72;43.30;100502.18;3690685;78;99121;-83
2022/07/04 17:21:36;;;;;;;3.77;1.62;;;;;;;27.54;43.45;100489.70;3700841;79;98825;-84
2022/07/04 17:26:37;;;;;;;4.33;2.05;;;;;;;27.39;43.82;100505.91;3677853;78;98410;-83
2022/07/04 17:31:38;;;;;;;4.70;1.90;;;;;;;27.23;44.14;100505.01;3699459;78;98751;-84
2022/07/04 17:36:39;;;;;;;5.87;2.10;;;;;;;27.15;44.49;100508.69;3684291;79;98475;-85
2022/07/04 17:41:42;;;;;;;2.75;1.70;;;;;;;26.96;44.62;100510.14;3692266;78;27337;-83
2022/07/04 17:46:45;;;;;;;3.52;1.90;;;;;;;26.77;44.83;100512.40;3686273;79;99024;-83
2022/07/04 17:51:46;;;;;;;4.03;2.30;;;;;;;26.61;44.81;100518.51;3701021;78;97795;-83
2022/07/04 17:56:47;;;;;;;5.03;1.85;;;;;;;26.45;44.83;100520.96;3669071;78;98753;-84
2022/07/04 18:01:49;;;;;;;4.20;1.92;;;;;;;26.33;45.10;100520.59;3687697;79;98899;-83
2022/07/04 18:06:50;;;;;;;6.00;2.70;;;;;;;26.18;45.24;100524.78;3687579;78;98545;-82
2022/07/04 18:11:51;;;;;;;2.92;1.60;;;;;;;26.06;45.79;100525.02;3702735;78;33663;-83
2022/07/04 18:16:52;;;;;;;5.17;1.80;;;;;;;25.93;46.55;100531.55;3692441;78;98767;-85
2022/07/04 18:21:58;;;;;;;3.62;1.60;;;;;;;25.80;46.05;100528.13;3705791;78;99145;-82
2022/07/04 18:26:57;;;;;;;2.75;1.72;;;;;;;25.63;46.41;100546.08;3683867;78;99140;-83
2022/07/04 18:31:58;;;;;;;4.08;1.72;;;;;;;25.52;46.70;100555.68;3674076;78;98848;-82
2022/07/04 18:36:59;;;;;;;2.55;1.67;;;;;;;25.38;47.93;100561.19;3686825;78;99168;-82
2022/07/04 18:47:21;;;;;;;3.35;1.77;;;;;;;25.16;49.50;100562.80;3674381;78;98577;-83
2022/07/04 18:52:22;;;;;;;2.95;1.75;;;;;;;25.00;50.05;100569.38;3687161;78;98755;-83
2022/07/04 18:57:24;;;;;;;3.40;1.62;;;;;;;24.84;50.60;100570.51;3684938;78;98836;-82
2022/07/04 19:02:25;;;;;;;6.20;2.37;;;;;;;24.69;51.17;100578.02;3702247;78;99239;-81
2022/07/04 19:07:26;;;;;;;3.92;2.27;;;;;;;24.54;51.99;100579.87;3685853;78;99311;-81
2022/07/04 19:12:28;;;;;;;6.75;3.00;;;;;;;24.38;52.40;100587.83;3677740;78;98830;-80
2022/07/04 19:17:29;;;;;;;6.10;2.80;;;;;;;24.25;52.72;100588.59;3682748;78;98516;-80
2022/07/04 19:22:30;;;;;;;65.75;47.30;;;;;;;24.14;53.14;100596.70;3681887;78;98997;-80
2022/07/04 19:27:31;;;;;;;20.70;12.85;;;;;;;23.95;53.10;100599.29;3687723;78;99381;-80
2022/07/04 19:32:35;;;;;;;9.80;5.05;;;;;;;23.81;53.99;100606.23;3710808;78;98283;-80
2022/07/04 19:37:41;;;;;;;6.97;3.12;;;;;;;23.70;54.38;100615.72;3700899;78;98906;-81
2022/07/04 19:42:42;;;;;;;5.58;2.75;;;;;;;23.54;54.76;100625.78;3714068;78;98501;-80
2022/07/04 19:47:43;;;;;;;7.05;2.42;;;;;;;23.38;55.62;100616.17;3703485;78;98392;-80
2022/07/04 19:52:46;;;;;;;4.87;2.30;;;;;;;23.26;56.45;100629.67;3729299;78;99031;-81
2022/07/04 19:57:48;;;;;;;5.83;2.70;;;;;;;23.15;56.71;100632.70;3670546;79;98933;-81
2022/07/04 20:02:49;;;;;;;6.30;2.60;;;;;;;22.97;56.77;100645.18;3689208;78;98731;-82
2022/07/04 20:07:50;;;;;;;4.67;1.85;;;;;;;22.81;56.87;100650.97;3677493;78;98903;-81
2022/07/04 20:12:51;;;;;;;4.30;2.05;;;;;;;22.64;57.81;100654.58;3706522;79;98749;-81
2022/07/04 20:17:53;;;;;;;4.75;1.92;;;;;;;22.40;57.04;100656.80;3689835;78;98847;-82
2022/07/04 20:22:56;;;;;;;5.08;1.77;;;;;;;22.24;58.36;100658.33;3697663;78;97612;-81
2022/07/04 20:27:57;;;;;;;3.30;1.98;;;;;;;22.18;59.25;100662.94;3693204;79;98919;-80
2022/07/04 20:32:59;;;;;;;4.08;1.95;;;;;;;22.13;60.02;100672.67;3705550;80;99365;-80
2022/07/04 20:38:00;;;;;;;4.55;2.17;;;;;;;22.08;60.65;100682.28;3670895;79;98793;-81
2022/07/04 20:43:01;;;;;;;3.37;2.02;;;;;;;22.00;60.79;100670.51;3676459;79;98922;-81
2022/07/04 20:48:02;;;;;;;5.42;1.82;;;;;;;21.89;60.97;100674.26;3677824;79;98517;-80
2022/07/04 20:53:03;;;;;;;3.70;1.75;;;;;;;21.76;61.08;100671.28;3653437;80;32457;-81
2022/07/04 20:58:04;;;;;;;5.08;2.22;;;;;;;21.66;61.56;100680.75;3668923;80;98416;-82
2022/07/04 21:03:06;;;;;;;4.97;2.60;;;;;;;21.55;62.24;100685.89;3661902;80;99171;-81
2022/07/04 21:08:09;;;;;;;5.17;2.08;;;;;;;21.49;62.55;100684.87;3673872;80;99501;-81
2022/07/04 21:13:10;;;;;;;6.53;2.40;;;;;;;21.40;63.09;100679.92;3677803;78;99208;-81
2022/07/04 21:18:10;;;;;;;4.92;2.10;;;;;;;21.34;63.67;100690.70;3661919;80;99188;-81
2022/07/04 21:23:12;;;;;;;6.33;1.90;;;;;;;21.25;63.87;100682.95;3667378;79;32395;-82
2022/07/04 21:28:13;;;;;;;4.90;2.08;;;;;;;21.11;63.72;100695.16;3668592;78;98767;-82
2022/07/04 21:33:14;;;;;;;4.03;1.95;;;;;;;21.02;64.36;100700.60;3672618;80;98929;-82
2022/07/04 21:38:15;;;;;;;6.53;2.10;;;;;;;20.95;64.95;100702.20;3661642;79;98925;-81
2022/07/04 21:43:16;;;;;;;4.92;2.52;;;;;;;20.86;65.00;100711.80;3654042;79;98761;-81
2022/07/04 21:48:17;;;;;;;4.03;2.30;;;;;;;20.80;65.29;100713.55;3651083;79;99361;-81
2022/07/04 21:53:18;;;;;;;6.37;2.45;;;;;;;20.72;65.99;100714.98;3646032;80;31421;-81
2022/07/04 21:58:19;;;;;;;10.28;2.55;;;;;;;20.68;66.15;100718.47;3634582;80;99099;-81
2022/07/04 22:03:20;;;;;;;4.83;2.75;;;;;;;20.57;66.09;100727.73;3626784;79;99419;-80
2022/07/04 22:08:21;;;;;;;4.05;2.22;;;;;;;20.46;66.08;100724.42;3638163;80;98689;-81
2022/07/04 22:13:22;;;;;;;5.67;2.65;;;;;;;20.37;66.58;100728.42;3645014;80;98936;-81
2022/07/04 22:18:23;;;;;;;4.97;2.37;;;;;;;20.30;67.08;100730.00;3637450;79;98820;-81
2022/07/04 22:23:24;;;;;;;5.13;2.37;;;;;;;20.22;67.06;100727.20;3645832;80;26184;-83
2022/07/04 22:28:26;;;;;;;4.50;2.73;;;;;;;20.10;67.08;100733.48;3560420;81;98922;-83
2022/07/04 22:33:27;;;;;;;4.83;2.50;;;;;;;19.99;67.65;100732.91;3558912;81;97869;-84
2022/07/04 22:38:28;;;;;;;4.77;2.63;;;;;;;19.93;67.79;100732.61;3573247;81;98843;-83
2022/07/04 22:43:29;;;;;;;5.23;2.43;;;;;;;19.85;68.16;100735.41;3558942;81;98466;-84
2022/07/04 22:48:30;;;;;;;3.37;2.27;;;;;;;19.81;68.50;100747.84;3601909;80;99154;-83
2022/07/04 22:58:50;;;;;;;2.98;1.82;;;;;;;19.66;68.47;100754.34;3576939;81;98521;-83
2022/07/04 23:03:53;;;;;;;5.43;2.50;;;;;;;19.58;68.65;100758.52;3620648;80;97851;-83
2022/07/04 23:08:54;;;;;;;5.03;2.47;;;;;;;19.52;68.87;100768.58;3697218;78;98855;-84
2022/07/04 23:13:55;;;;;;;6.37;2.63;;;;;;;19.44;69.12;100762.98;3692449;78;98734;-84
2022/07/04 23:18:56;;;;;;;4.35;2.50;;;;;;;19.38;69.52;100763.89;3688367;78;99036;-84
2022/07/04 23:23:57;;;;;;;4.70;2.50;;;;;;;19.37;70.26;100783.26;3695399;78;26024;-84
2022/07/04 23:28:58;;;;;;;6.17;2.80;;;;;;;19.39;70.61;100777.43;3670582;78;98880;-84
2022/07/04 23:33:59;;;;;;;9.63;3.10;;;;;;;19.32;70.54;100775.38;3688049;78;99115;-84
2022/07/04 23:39:00;;;;;;;5.37;2.70;;;;;;;19.26;70.60;100766.72;3663488;78;98859;-84
2022/07/04 23:44:01;;;;;;;4.23;2.70;;;;;;;19.17;70.84;100760.08;3639901;80;99295;-84
2022/07/04 23:49:02;;;;;;;7.93;3.00;;;;;;;19.08;71.17;100752.27;3609759;80;98592;-84
2022/07/04 23:54:04;;;;;;;5.63;2.70;;;;;;;19.03;71.75;100761.75;3614961;80;98822;-84
2022/07/04 23:59:05;;;;;;;5.23;2.80;;;;;;;18.99;71.94;100758.23;3619651;80;98746;-85
